sensor_id;sensor_type;location;lat;lon;timestamp;P1;durP1;ratioP1;P2;durP2;ratioP2
295;SDS011;132;48.770;9.200;2022-09-09T00:00:14;4.43;;;2.00;;
295;SDS011;132;48.770;9.200;2022-09-09T00:03:14;10.27;;;2.37;;
295;SDS011;132;48.770;9.200;2022-09-09T00:09:04;3.33;;;1.97;;
295;SDS011;132;48.770;9.200;2022-09-09T00:12:02;5.27;;;2.03;;
295;SDS011;132;48.770;9.200;2022-09-09T00:15:18;4.90;;;2.00;;
295;SDS011;132;48.770;9.200;2022-09-09T00:21:05;3.33;;;2.10;;
295;SDS011;132;48.770;9.200;2022-09-09T00:23:54;3.17;;;1.90;;
295;SDS011;132;48.770;9.200;2022-09-09T00:26:48;3.37;;;1.97;;
295;SDS011;132;48.770;9.200;2022-09-09T00:29:45;6.97;;;2.20;;
295;SDS011;132;48.770;9.200;2022-09-09T00:32:40;3.00;;;2.37;;
295;SDS011;132;48.770;9.200;2022-09-09T00:35:29;3.30;;;2.03;;
295;SDS011;132;48.770;9.200;2022-09-09T00:38:18;2.70;;;1.70;;
295;SDS011;132;48.770;9.200;2022-09-09T00:41:22;3.83;;;2.13;;
295;SDS011;132;48.770;9.200;2022-09-09T00:47:12;2.77;;;1.73;;
295;SDS011;132;48.770;9.200;2022-09-09T00:50:23;4.93;;;1.80;;
295;SDS011;132;48.770;9.200;2022-09-09T00:53:31;6.33;;;2.10;;
295;SDS011;132;48.770;9.200;2022-09-09T00:56:42;3.83;;;2.17;;
295;SDS011;132;48.770;9.200;2022-09-09T00:59:39;5.90;;;2.00;;
295;SDS011;132;48.770;9.200;2022-09-09T01:02:56;4.07;;;2.20;;
295;SDS011;132;48.770;9.200;2022-09-09T01:05:45;3.20;;;1.70;;
295;SDS011;132;48.770;9.200;2022-09-09T01:17:21;4.70;;;1.80;;
295;SDS011;132;48.770;9.200;2022-09-09T01:20:29;5.53;;;1.87;;
295;SDS011;132;48.770;9.200;2022-09-09T01:26:42;8.07;;;2.20;;
295;SDS011;132;48.770;9.200;2022-09-09T01:29:42;4.43;;;1.80;;
295;SDS011;132;48.770;9.200;2022-09-09T01:32:49;5.43;;;1.93;;
295;SDS011;132;48.770;9.200;2022-09-09T01:38:27;6.23;;;2.10;;
295;SDS011;132;48.770;9.200;2022-09-09T01:41:16;4.27;;;1.90;;
295;SDS011;132;48.770;9.200;2022-09-09T01:44:10;3.43;;;1.87;;
295;SDS011;132;48.770;9.200;2022-09-09T01:46:59;4.20;;;2.00;;
295;SDS011;132;48.770;9.200;2022-09-09T01:49:46;3.43;;;1.80;;
295;SDS011;132;48.770;9.200;2022-09-09T01:52:41;3.50;;;1.90;;
295;SDS011;132;48.770;9.200;2022-09-09T01:55:33;3.00;;;1.60;;
295;SDS011;132;48.770;9.200;2022-09-09T02:01:26;2.10;;;1.80;;
295;SDS011;132;48.770;9.200;2022-09-09T02:04:42;3.57;;;1.77;;
295;SDS011;132;48.770;9.200;2022-09-09T02:07:41;3.60;;;2.00;;
295;SDS011;132;48.770;9.200;2022-09-09T02:11:09;3.90;;;1.80;;
295;SDS011;132;48.770;9.200;2022-09-09T02:14:14;4.03;;;2.00;;
295;SDS011;132;48.770;9.200;2022-09-09T02:17:08;8.63;;;2.07;;
295;SDS011;132;48.770;9.200;2022-09-09T02:20:16;3.53;;;1.70;;
295;SDS011;132;48.770;9.200;2022-09-09T02:23:15;3.87;;;2.10;;
295;SDS011;132;48.770;9.200;2022-09-09T02:26:04;2.90;;;1.70;;
295;SDS011;132;48.770;9.200;2022-09-09T02:28:54;3.33;;;2.03;;
295;SDS011;132;48.770;9.200;2022-09-09T02:31:42;5.20;;;2.00;;
295;SDS011;132;48.770;9.200;2022-09-09T02:34:39;4.30;;;1.70;;
295;SDS011;132;48.770;9.200;2022-09-09T02:37:34;4.50;;;2.00;;
295;SDS011;132;48.770;9.200;2022-09-09T02:40:23;7.40;;;2.00;;
295;SDS011;132;48.770;9.200;2022-09-09T02:43:17;4.27;;;1.70;;
295;SDS011;132;48.770;9.200;2022-09-09T02:53:04;3.97;;;1.80;;
295;SDS011;132;48.770;9.200;2022-09-09T02:55:49;3.10;;;2.03;;
295;SDS011;132;48.770;9.200;2022-09-09T02:58:53;4.13;;;1.80;;
295;SDS011;132;48.770;9.200;2022-09-09T03:01:40;4.33;;;1.90;;
295;SDS011;132;48.770;9.200;2022-09-09T03:04:27;2.57;;;1.53;;
295;SDS011;132;48.770;9.200;2022-09-09T03:07:16;1.67;;;1.50;;
295;SDS011;132;48.770;9.200;2022-09-09T03:10:05;2.70;;;1.60;;
295;SDS011;132;48.770;9.200;2022-09-09T03:12:52;2.93;;;1.80;;
295;SDS011;132;48.770;9.200;2022-09-09T03:15:39;3.23;;;1.87;;
295;SDS011;132;48.770;9.200;2022-09-09T03:18:28;1.83;;;1.63;;
295;SDS011;132;48.770;9.200;2022-09-09T03:21:17;2.80;;;1.60;;
295;SDS011;132;48.770;9.200;2022-09-09T03:24:05;1.90;;;1.57;;
295;SDS011;132;48.770;9.200;2022-09-09T03:26:52;4.30;;;1.70;;
295;SDS011;132;48.770;9.200;2022-09-09T03:29:39;3.77;;;2.30;;
295;SDS011;132;48.770;9.200;2022-09-09T03:32:31;4.70;;;2.03;;
295;SDS011;132;48.770;9.200;2022-09-09T03:35:18;3.93;;;1.80;;
295;SDS011;132;48.770;9.200;2022-09-09T03:38:05;6.73;;;1.70;;
295;SDS011;132;48.770;9.200;2022-09-09T03:40:55;3.33;;;1.70;;
295;SDS011;132;48.770;9.200;2022-09-09T03:43:44;3.80;;;1.47;;
295;SDS011;132;48.770;9.200;2022-09-09T03:46:31;1.43;;;1.30;;
295;SDS011;132;48.770;9.200;2022-09-09T03:49:19;2.40;;;1.77;;
295;SDS011;132;48.770;9.200;2022-09-09T03:52:08;2.20;;;1.70;;
295;SDS011;132;48.770;9.200;2022-09-09T03:54:55;5.10;;;1.70;;
295;SDS011;132;48.770;9.200;2022-09-09T03:57:43;2.90;;;1.70;;
295;SDS011;132;48.770;9.200;2022-09-09T04:00:30;2.20;;;1.50;;
295;SDS011;132;48.770;9.200;2022-09-09T04:03:18;2.60;;;1.70;;
295;SDS011;132;48.770;9.200;2022-09-09T04:06:05;3.47;;;1.60;;
295;SDS011;132;48.770;9.200;2022-09-09T04:08:54;7.97;;;1.97;;
295;SDS011;132;48.770;9.200;2022-09-09T04:11:42;3.47;;;1.80;;
295;SDS011;132;48.770;9.200;2022-09-09T04:14:28;3.00;;;1.60;;
295;SDS011;132;48.770;9.200;2022-09-09T04:17:16;3.30;;;1.67;;
295;SDS011;132;48.770;9.200;2022-09-09T04:20:03;3.40;;;1.83;;
295;SDS011;132;48.770;9.200;2022-09-09T04:22:50;4.60;;;1.90;;
295;SDS011;132;48.770;9.200;2022-09-09T04:25:37;8.40;;;1.90;;
295;SDS011;132;48.770;9.200;2022-09-09T04:28:25;6.97;;;1.93;;
295;SDS011;132;48.770;9.200;2022-09-09T04:31:17;5.70;;;1.80;;
295;SDS011;132;48.770;9.200;2022-09-09T04:34:08;6.53;;;2.00;;
295;SDS011;132;48.770;9.200;2022-09-09T04:36:55;5.20;;;1.90;;
295;SDS011;132;48.770;9.200;2022-09-09T04:39:43;6.13;;;2.37;;
295;SDS011;132;48.770;9.200;2022-09-09T04:42:34;3.10;;;1.80;;
295;SDS011;132;48.770;9.200;2022-09-09T04:45:22;5.77;;;2.10;;
295;SDS011;132;48.770;9.200;2022-09-09T04:48:09;4.20;;;2.00;;
295;SDS011;132;48.770;9.200;2022-09-09T04:51:02;6.17;;;2.20;;
295;SDS011;132;48.770;9.200;2022-09-09T04:53:54;6.50;;;2.20;;
295;SDS011;132;48.770;9.200;2022-09-09T04:56:41;5.70;;;2.50;;
295;SDS011;132;48.770;9.200;2022-09-09T04:59:30;4.13;;;2.00;;
295;SDS011;132;48.770;9.200;2022-09-09T05:02:21;2.60;;;2.00;;
295;SDS011;132;48.770;9.200;2022-09-09T05:05:10;3.20;;;2.10;;
295;SDS011;132;48.770;9.200;2022-09-09T05:08:01;5.60;;;2.27;;
295;SDS011;132;48.770;9.200;2022-09-09T05:10:48;2.67;;;1.97;;
295;SDS011;132;48.770;9.200;2022-09-09T05:13:35;3.30;;;2.00;;
295;SDS011;132;48.770;9.200;2022-09-09T05:16:23;2.40;;;1.90;;
295;SDS011;132;48.770;9.200;2022-09-09T05:19:10;4.07;;;2.10;;
295;SDS011;132;48.770;9.200;2022-09-09T05:22:03;3.83;;;2.30;;
295;SDS011;132;48.770;9.200;2022-09-09T05:24:59;4.50;;;2.10;;
295;SDS011;132;48.770;9.200;2022-09-09T05:27:47;3.10;;;2.20;;
295;SDS011;132;48.770;9.200;2022-09-09T05:30:34;4.00;;;2.07;;
295;SDS011;132;48.770;9.200;2022-09-09T05:33:24;4.00;;;2.10;;
295;SDS011;132;48.770;9.200;2022-09-09T05:36:13;2.90;;;1.80;;
295;SDS011;132;48.770;9.200;2022-09-09T05:39:00;3.83;;;2.10;;
295;SDS011;132;48.770;9.200;2022-09-09T05:41:49;5.70;;;2.10;;
295;SDS011;132;48.770;9.200;2022-09-09T05:44:36;3.30;;;1.97;;
295;SDS011;132;48.770;9.200;2022-09-09T05:47:23;4.00;;;2.00;;
295;SDS011;132;48.770;9.200;2022-09-09T05:50:10;4.17;;;2.03;;
295;SDS011;132;48.770;9.200;2022-09-09T05:52:58;3.27;;;2.00;;
295;SDS011;132;48.770;9.200;2022-09-09T05:55:46;8.63;;;1.80;;
295;SDS011;132;48.770;9.200;2022-09-09T05:58:33;3.80;;;2.00;;
295;SDS011;132;48.770;9.200;2022-09-09T06:01:25;4.23;;;2.00;;
295;SDS011;132;48.770;9.200;2022-09-09T06:04:17;3.00;;;1.90;;
295;SDS011;132;48.770;9.200;2022-09-09T06:07:05;4.80;;;2.03;;
295;SDS011;132;48.770;9.200;2022-09-09T06:09:51;5.40;;;2.03;;
295;SDS011;132;48.770;9.200;2022-09-09T06:12:39;4.60;;;2.00;;
295;SDS011;132;48.770;9.200;2022-09-09T06:15:27;2.80;;;1.90;;
295;SDS011;132;48.770;9.200;2022-09-09T06:18:16;4.23;;;2.40;;
295;SDS011;132;48.770;9.200;2022-09-09T06:21:05;4.40;;;2.10;;
295;SDS011;132;48.770;9.200;2022-09-09T06:23:55;4.87;;;2.33;;
295;SDS011;132;48.770;9.200;2022-09-09T06:26:42;3.63;;;2.13;;
295;SDS011;132;48.770;9.200;2022-09-09T06:29:32;3.57;;;2.27;;
295;SDS011;132;48.770;9.200;2022-09-09T06:32:21;4.50;;;1.97;;
295;SDS011;132;48.770;9.200;2022-09-09T06:35:09;3.93;;;2.10;;
295;SDS011;132;48.770;9.200;2022-09-09T06:37:57;6.00;;;2.10;;
295;SDS011;132;48.770;9.200;2022-09-09T06:40:54;4.87;;;2.53;;
295;SDS011;132;48.770;9.200;2022-09-09T06:43:44;4.63;;;2.20;;
295;SDS011;132;48.770;9.200;2022-09-09T06:46:34;2.53;;;2.00;;
295;SDS011;132;48.770;9.200;2022-09-09T06:49:22;14.30;;;2.60;;
295;SDS011;132;48.770;9.200;2022-09-09T06:52:09;5.27;;;2.23;;
295;SDS011;132;48.770;9.200;2022-09-09T06:54:57;3.10;;;2.20;;
295;SDS011;132;48.770;9.200;2022-09-09T06:57:45;4.40;;;2.23;;
295;SDS011;132;48.770;9.200;2022-09-09T07:00:37;4.97;;;2.20;;
295;SDS011;132;48.770;9.200;2022-09-09T07:03:25;5.57;;;2.20;;
295;SDS011;132;48.770;9.200;2022-09-09T07:06:15;5.53;;;2.10;;
295;SDS011;132;48.770;9.200;2022-09-09T07:09:06;5.10;;;2.37;;
295;SDS011;132;48.770;9.200;2022-09-09T07:11:54;3.47;;;2.00;;
295;SDS011;132;48.770;9.200;2022-09-09T07:14:48;3.23;;;2.00;;
295;SDS011;132;48.770;9.200;2022-09-09T07:17:35;3.87;;;2.13;;
295;SDS011;132;48.770;9.200;2022-09-09T07:20:22;3.53;;;2.00;;
295;SDS011;132;48.770;9.200;2022-09-09T07:23:09;4.63;;;2.10;;
295;SDS011;132;48.770;9.200;2022-09-09T07:25:57;4.23;;;2.20;;
295;SDS011;132;48.770;9.200;2022-09-09T07:28:44;7.70;;;2.13;;
295;SDS011;132;48.770;9.200;2022-09-09T07:31:32;5.80;;;2.27;;
295;SDS011;132;48.770;9.200;2022-09-09T07:34:22;3.07;;;1.80;;
295;SDS011;132;48.770;9.200;2022-09-09T07:37:09;2.83;;;2.00;;
295;SDS011;132;48.770;9.200;2022-09-09T07:39:59;4.70;;;2.20;;
295;SDS011;132;48.770;9.200;2022-09-09T07:42:46;5.33;;;2.20;;
295;SDS011;132;48.770;9.200;2022-09-09T07:45:33;4.13;;;2.27;;
295;SDS011;132;48.770;9.200;2022-09-09T07:48:22;3.37;;;2.10;;
295;SDS011;132;48.770;9.200;2022-09-09T07:51:12;4.70;;;2.00;;
295;SDS011;132;48.770;9.200;2022-09-09T07:54:04;3.40;;;2.07;;
295;SDS011;132;48.770;9.200;2022-09-09T07:56:53;3.43;;;1.90;;
295;SDS011;132;48.770;9.200;2022-09-09T07:59:43;3.27;;;1.90;;
295;SDS011;132;48.770;9.200;2022-09-09T08:02:31;3.80;;;1.97;;
295;SDS011;132;48.770;9.200;2022-09-09T08:05:18;3.73;;;1.93;;
295;SDS011;132;48.770;9.200;2022-09-09T08:08:05;6.63;;;2.27;;
295;SDS011;132;48.770;9.200;2022-09-09T08:10:52;9.00;;;2.23;;
295;SDS011;132;48.770;9.200;2022-09-09T08:13:40;8.10;;;2.30;;
295;SDS011;132;48.770;9.200;2022-09-09T08:16:28;4.10;;;2.30;;
295;SDS011;132;48.770;9.200;2022-09-09T08:19:18;6.37;;;1.90;;
295;SDS011;132;48.770;9.200;2022-09-09T08:22:06;5.23;;;2.03;;
295;SDS011;132;48.770;9.200;2022-09-09T08:24:55;4.80;;;2.00;;
295;SDS011;132;48.770;9.200;2022-09-09T08:27:42;4.60;;;1.93;;
295;SDS011;132;48.770;9.200;2022-09-09T08:30:29;3.10;;;2.10;;
295;SDS011;132;48.770;9.200;2022-09-09T08:33:16;8.40;;;2.30;;
295;SDS011;132;48.770;9.200;2022-09-09T08:36:05;5.03;;;2.37;;
295;SDS011;132;48.770;9.200;2022-09-09T08:38:54;3.60;;;1.97;;
295;SDS011;132;48.770;9.200;2022-09-09T08:47:32;3.67;;;2.07;;
295;SDS011;132;48.770;9.200;2022-09-09T08:50:27;4.47;;;2.03;;
295;SDS011;132;48.770;9.200;2022-09-09T08:53:28;3.67;;;1.90;;
295;SDS011;132;48.770;9.200;2022-09-09T08:56:25;7.70;;;2.20;;
295;SDS011;132;48.770;9.200;2022-09-09T08:59:17;8.40;;;2.33;;
295;SDS011;132;48.770;9.200;2022-09-09T09:02:14;4.93;;;2.03;;
295;SDS011;132;48.770;9.200;2022-09-09T09:05:15;10.33;;;2.10;;
295;SDS011;132;48.770;9.200;2022-09-09T09:08:36;5.73;;;2.00;;
295;SDS011;132;48.770;9.200;2022-09-09T09:11:38;6.30;;;2.33;;
295;SDS011;132;48.770;9.200;2022-09-09T09:14:28;6.07;;;2.03;;
295;SDS011;132;48.770;9.200;2022-09-09T09:17:23;3.50;;;2.10;;
295;SDS011;132;48.770;9.200;2022-09-09T09:20:13;4.93;;;2.13;;
295;SDS011;132;48.770;9.200;2022-09-09T09:23:02;4.37;;;1.70;;
295;SDS011;132;48.770;9.200;2022-09-09T09:25:55;4.73;;;2.20;;
295;SDS011;132;48.770;9.200;2022-09-09T09:28:45;4.30;;;2.10;;
295;SDS011;132;48.770;9.200;2022-09-09T09:31:36;6.87;;;1.83;;
295;SDS011;132;48.770;9.200;2022-09-09T09:34:23;7.03;;;2.40;;
295;SDS011;132;48.770;9.200;2022-09-09T09:37:12;4.50;;;1.87;;
295;SDS011;132;48.770;9.200;2022-09-09T09:40:24;6.37;;;1.90;;
295;SDS011;132;48.770;9.200;2022-09-09T09:43:17;4.57;;;1.70;;
295;SDS011;132;48.770;9.200;2022-09-09T09:46:21;8.90;;;2.07;;
295;SDS011;132;48.770;9.200;2022-09-09T09:49:10;2.20;;;1.70;;
295;SDS011;132;48.770;9.200;2022-09-09T09:52:00;3.67;;;1.70;;
295;SDS011;132;48.770;9.200;2022-09-09T09:54:49;3.90;;;1.70;;
295;SDS011;132;48.770;9.200;2022-09-09T09:57:37;1.80;;;1.60;;
295;SDS011;132;48.770;9.200;2022-09-09T10:00:28;2.97;;;1.87;;
295;SDS011;132;48.770;9.200;2022-09-09T10:03:27;4.23;;;1.90;;
295;SDS011;132;48.770;9.200;2022-09-09T10:06:16;2.80;;;2.03;;
295;SDS011;132;48.770;9.200;2022-09-09T10:09:03;3.87;;;1.90;;
295;SDS011;132;48.770;9.200;2022-09-09T10:15:24;4.40;;;2.20;;
295;SDS011;132;48.770;9.200;2022-09-09T10:18:38;3.77;;;1.97;;
295;SDS011;132;48.770;9.200;2022-09-09T10:21:47;2.80;;;1.80;;
295;SDS011;132;48.770;9.200;2022-09-09T10:37:00;5.30;;;2.30;;
295;SDS011;132;48.770;9.200;2022-09-09T10:40:02;3.70;;;2.20;;
295;SDS011;132;48.770;9.200;2022-09-09T10:46:05;4.77;;;2.30;;
295;SDS011;132;48.770;9.200;2022-09-09T10:55:38;2.80;;;1.80;;
295;SDS011;132;48.770;9.200;2022-09-09T10:58:30;6.00;;;2.30;;
295;SDS011;132;48.770;9.200;2022-09-09T11:01:41;3.57;;;2.30;;
295;SDS011;132;48.770;9.200;2022-09-09T11:04:43;6.87;;;2.50;;
295;SDS011;132;48.770;9.200;2022-09-09T11:07:36;6.13;;;2.63;;
295;SDS011;132;48.770;9.200;2022-09-09T11:10:38;5.70;;;2.47;;
295;SDS011;132;48.770;9.200;2022-09-09T11:19:48;12.90;;;2.77;;
295;SDS011;132;48.770;9.200;2022-09-09T11:22:36;4.33;;;1.90;;
295;SDS011;132;48.770;9.200;2022-09-09T11:25:31;3.70;;;1.90;;
295;SDS011;132;48.770;9.200;2022-09-09T11:28:50;2.10;;;1.70;;
295;SDS011;132;48.770;9.200;2022-09-09T11:41:14;3.03;;;2.00;;
295;SDS011;132;48.770;9.200;2022-09-09T11:44:08;12.67;;;2.30;;
295;SDS011;132;48.770;9.200;2022-09-09T11:46:57;7.73;;;2.17;;
295;SDS011;132;48.770;9.200;2022-09-09T11:49:44;4.17;;;1.87;;
295;SDS011;132;48.770;9.200;2022-09-09T11:52:39;4.93;;;1.80;;
295;SDS011;132;48.770;9.200;2022-09-09T11:55:32;2.43;;;1.83;;
295;SDS011;132;48.770;9.200;2022-09-09T11:58:22;2.00;;;1.80;;
295;SDS011;132;48.770;9.200;2022-09-09T12:01:13;3.00;;;2.50;;
295;SDS011;132;48.770;9.200;2022-09-09T12:04:30;2.80;;;2.60;;
295;SDS011;132;48.770;9.200;2022-09-09T12:10:32;2.20;;;1.73;;
295;SDS011;132;48.770;9.200;2022-09-09T12:13:21;2.50;;;1.70;;
295;SDS011;132;48.770;9.200;2022-09-09T12:16:26;3.40;;;1.50;;
295;SDS011;132;48.770;9.200;2022-09-09T12:19:20;1.80;;;1.40;;
295;SDS011;132;48.770;9.200;2022-09-09T12:22:12;1.93;;;1.30;;
295;SDS011;132;48.770;9.200;2022-09-09T12:25:23;2.43;;;1.47;;
295;SDS011;132;48.770;9.200;2022-09-09T12:37:35;1.87;;;1.30;;
295;SDS011;132;48.770;9.200;2022-09-09T12:43:17;2.47;;;1.80;;
295;SDS011;132;48.770;9.200;2022-09-09T12:46:08;2.27;;;1.70;;
295;SDS011;132;48.770;9.200;2022-09-09T12:49:23;3.03;;;1.90;;
295;SDS011;132;48.770;9.200;2022-09-09T12:52:15;4.57;;;2.20;;
295;SDS011;132;48.770;9.200;2022-09-09T12:55:06;3.93;;;1.90;;
295;SDS011;132;48.770;9.200;2022-09-09T12:57:57;6.60;;;2.37;;
295;SDS011;132;48.770;9.200;2022-09-09T13:00:52;3.30;;;1.80;;
295;SDS011;132;48.770;9.200;2022-09-09T13:03:42;2.63;;;1.67;;
295;SDS011;132;48.770;9.200;2022-09-09T13:06:33;3.77;;;1.60;;
295;SDS011;132;48.770;9.200;2022-09-09T13:09:20;3.67;;;1.80;;
295;SDS011;132;48.770;9.200;2022-09-09T13:12:11;2.40;;;2.30;;
295;SDS011;132;48.770;9.200;2022-09-09T13:15:02;8.10;;;2.30;;
295;SDS011;132;48.770;9.200;2022-09-09T13:17:50;5.67;;;2.70;;
295;SDS011;132;48.770;9.200;2022-09-09T13:20:39;8.07;;;7.67;;
295;SDS011;132;48.770;9.200;2022-09-09T13:23:33;30.77;;;29.27;;
295;SDS011;132;48.770;9.200;2022-09-09T13:26:24;3.67;;;3.47;;
295;SDS011;132;48.770;9.200;2022-09-09T13:29:16;98.73;;;93.97;;
295;SDS011;132;48.770;9.200;2022-09-09T13:32:05;5.63;;;4.33;;
295;SDS011;132;48.770;9.200;2022-09-09T13:35:03;1087.23;;;999.90;;
295;SDS011;132;48.770;9.200;2022-09-09T13:37:49;1092.03;;;999.90;;
295;SDS011;132;48.770;9.200;2022-09-09T13:40:37;1123.07;;;999.90;;
295;SDS011;132;48.770;9.200;2022-09-09T13:43:24;5.20;;;3.03;;
295;SDS011;132;48.770;9.200;2022-09-09T13:46:30;3.13;;;1.60;;
295;SDS011;132;48.770;9.200;2022-09-09T13:49:28;7.10;;;6.70;;
295;SDS011;132;48.770;9.200;2022-09-09T13:52:16;6.10;;;5.80;;
295;SDS011;132;48.770;9.200;2022-09-09T13:55:04;4.93;;;2.80;;
295;SDS011;132;48.770;9.200;2022-09-09T13:57:56;16.13;;;15.33;;
295;SDS011;132;48.770;9.200;2022-09-09T14:00:46;1166.33;;;999.90;;
295;SDS011;132;48.770;9.200;2022-09-09T14:03:33;1119.77;;;999.90;;
295;SDS011;132;48.770;9.200;2022-09-09T14:06:20;1117.57;;;999.90;;
295;SDS011;132;48.770;9.200;2022-09-09T14:09:11;1146.77;;;999.90;;
295;SDS011;132;48.770;9.200;2022-09-09T14:11:59;1180.73;;;999.90;;
295;SDS011;132;48.770;9.200;2022-09-09T14:14:46;1158.63;;;999.90;;
295;SDS011;132;48.770;9.200;2022-09-09T14:17:33;1146.77;;;999.90;;
295;SDS011;132;48.770;9.200;2022-09-09T14:20:22;123.10;;;117.20;;
295;SDS011;132;48.770;9.200;2022-09-09T14:23:09;1170.13;;;999.90;;
295;SDS011;132;48.770;9.200;2022-09-09T14:25:57;4.60;;;2.20;;
295;SDS011;132;48.770;9.200;2022-09-09T14:28:44;3.90;;;1.70;;
295;SDS011;132;48.770;9.200;2022-09-09T14:31:32;3.73;;;2.10;;
295;SDS011;132;48.770;9.200;2022-09-09T14:34:18;2.93;;;1.97;;
295;SDS011;132;48.770;9.200;2022-09-09T14:37:06;3.37;;;2.87;;
295;SDS011;132;48.770;9.200;2022-09-09T14:39:52;977.97;;;931.37;;
295;SDS011;132;48.770;9.200;2022-09-09T14:42:39;2.83;;;2.00;;
295;SDS011;132;48.770;9.200;2022-09-09T14:45:27;3.57;;;1.90;;
295;SDS011;132;48.770;9.200;2022-09-09T14:48:14;124.93;;;118.93;;
295;SDS011;132;48.770;9.200;2022-09-09T14:51:20;805.83;;;767.43;;
295;SDS011;132;48.770;9.200;2022-09-09T14:54:09;16.00;;;15.20;;
295;SDS011;132;48.770;9.200;2022-09-09T14:56:56;5.23;;;1.80;;
295;SDS011;132;48.770;9.200;2022-09-09T14:59:43;2.70;;;1.40;;
295;SDS011;132;48.770;9.200;2022-09-09T15:02:30;2.87;;;2.10;;
295;SDS011;132;48.770;9.200;2022-09-09T15:05:17;3.23;;;1.80;;
295;SDS011;132;48.770;9.200;2022-09-09T15:08:05;1.97;;;1.50;;
295;SDS011;132;48.770;9.200;2022-09-09T15:10:58;3.93;;;1.50;;
295;SDS011;132;48.770;9.200;2022-09-09T15:13:46;3.90;;;2.10;;
295;SDS011;132;48.770;9.200;2022-09-09T15:16:34;3.10;;;1.47;;
295;SDS011;132;48.770;9.200;2022-09-09T15:19:21;2.90;;;1.50;;
295;SDS011;132;48.770;9.200;2022-09-09T15:22:07;4.27;;;1.60;;
295;SDS011;132;48.770;9.200;2022-09-09T15:24:54;3.00;;;1.50;;
295;SDS011;132;48.770;9.200;2022-09-09T15:27:41;3.10;;;1.50;;
295;SDS011;132;48.770;9.200;2022-09-09T15:30:27;7.80;;;1.80;;
295;SDS011;132;48.770;9.200;2022-09-09T15:33:14;2.37;;;1.63;;
295;SDS011;132;48.770;9.200;2022-09-09T15:36:11;2.30;;;1.60;;
295;SDS011;132;48.770;9.200;2022-09-09T15:39:09;2.83;;;1.70;;
295;SDS011;132;48.770;9.200;2022-09-09T15:42:01;3.77;;;1.70;;
295;SDS011;132;48.770;9.200;2022-09-09T15:44:48;3.60;;;1.53;;
295;SDS011;132;48.770;9.200;2022-09-09T15:47:34;4.83;;;1.83;;
295;SDS011;132;48.770;9.200;2022-09-09T15:50:21;3.10;;;1.80;;
295;SDS011;132;48.770;9.200;2022-09-09T15:53:08;4.20;;;1.60;;
295;SDS011;132;48.770;9.200;2022-09-09T15:55:55;5.67;;;1.70;;
295;SDS011;132;48.770;9.200;2022-09-09T15:58:42;2.30;;;1.47;;
295;SDS011;132;48.770;9.200;2022-09-09T16:01:30;4.43;;;1.60;;
295;SDS011;132;48.770;9.200;2022-09-09T16:04:17;3.30;;;1.53;;
295;SDS011;132;48.770;9.200;2022-09-09T16:07:10;2.00;;;1.30;;
295;SDS011;132;48.770;9.200;2022-09-09T16:09:57;4.30;;;1.80;;
295;SDS011;132;48.770;9.200;2022-09-09T16:12:44;3.60;;;1.40;;
295;SDS011;132;48.770;9.200;2022-09-09T16:15:31;2.47;;;1.40;;
295;SDS011;132;48.770;9.200;2022-09-09T16:18:17;3.00;;;1.50;;
295;SDS011;132;48.770;9.200;2022-09-09T16:21:04;2.27;;;1.60;;
295;SDS011;132;48.770;9.200;2022-09-09T16:23:52;2.53;;;1.43;;
295;SDS011;132;48.770;9.200;2022-09-09T16:26:40;2.33;;;1.50;;
295;SDS011;132;48.770;9.200;2022-09-09T16:29:31;4.13;;;1.90;;
295;SDS011;132;48.770;9.200;2022-09-09T16:32:18;6.70;;;1.53;;
295;SDS011;132;48.770;9.200;2022-09-09T16:35:05;4.53;;;1.50;;
295;SDS011;132;48.770;9.200;2022-09-09T16:37:52;2.53;;;1.50;;
295;SDS011;132;48.770;9.200;2022-09-09T16:40:39;5.20;;;1.70;;
295;SDS011;132;48.770;9.200;2022-09-09T16:43:27;3.60;;;1.90;;
295;SDS011;132;48.770;9.200;2022-09-09T16:46:18;3.60;;;1.90;;
295;SDS011;132;48.770;9.200;2022-09-09T16:49:06;3.70;;;1.80;;
295;SDS011;132;48.770;9.200;2022-09-09T16:51:56;3.17;;;1.67;;
295;SDS011;132;48.770;9.200;2022-09-09T16:54:44;3.60;;;1.80;;
295;SDS011;132;48.770;9.200;2022-09-09T16:57:31;3.83;;;1.50;;
295;SDS011;132;48.770;9.200;2022-09-09T17:00:17;2.80;;;1.43;;
295;SDS011;132;48.770;9.200;2022-09-09T17:03:04;1.70;;;1.30;;
295;SDS011;132;48.770;9.200;2022-09-09T17:05:51;2.07;;;1.30;;
295;SDS011;132;48.770;9.200;2022-09-09T17:08:38;1.70;;;1.20;;
295;SDS011;132;48.770;9.200;2022-09-09T17:11:27;1.83;;;1.30;;
295;SDS011;132;48.770;9.200;2022-09-09T17:14:15;1.97;;;1.30;;
295;SDS011;132;48.770;9.200;2022-09-09T17:17:04;2.47;;;1.40;;
295;SDS011;132;48.770;9.200;2022-09-09T17:19:51;2.53;;;1.27;;
295;SDS011;132;48.770;9.200;2022-09-09T17:22:37;2.10;;;1.57;;
295;SDS011;132;48.770;9.200;2022-09-09T17:25:24;3.10;;;1.40;;
295;SDS011;132;48.770;9.200;2022-09-09T17:28:11;1.63;;;1.30;;
295;SDS011;132;48.770;9.200;2022-09-09T17:30:58;2.23;;;1.40;;
295;SDS011;132;48.770;9.200;2022-09-09T17:33:51;1.50;;;1.30;;
295;SDS011;132;48.770;9.200;2022-09-09T17:36:41;2.03;;;1.30;;
295;SDS011;132;48.770;9.200;2022-09-09T17:39:30;3.23;;;1.40;;
295;SDS011;132;48.770;9.200;2022-09-09T17:42:16;1.60;;;1.40;;
295;SDS011;132;48.770;9.200;2022-09-09T17:45:04;2.60;;;1.50;;
295;SDS011;132;48.770;9.200;2022-09-09T17:47:54;1.87;;;1.50;;
295;SDS011;132;48.770;9.200;2022-09-09T17:50:40;2.67;;;1.50;;
295;SDS011;132;48.770;9.200;2022-09-09T17:53:27;2.53;;;1.40;;
295;SDS011;132;48.770;9.200;2022-09-09T17:56:15;6.43;;;1.60;;
295;SDS011;132;48.770;9.200;2022-09-09T17:59:03;3.30;;;1.60;;
295;SDS011;132;48.770;9.200;2022-09-09T18:01:52;3.30;;;1.70;;
295;SDS011;132;48.770;9.200;2022-09-09T18:04:39;1.40;;;1.20;;
295;SDS011;132;48.770;9.200;2022-09-09T18:07:27;2.30;;;1.47;;
295;SDS011;132;48.770;9.200;2022-09-09T18:10:14;3.20;;;1.40;;
295;SDS011;132;48.770;9.200;2022-09-09T18:13:01;3.13;;;1.50;;
295;SDS011;132;48.770;9.200;2022-09-09T18:15:48;3.13;;;1.50;;
295;SDS011;132;48.770;9.200;2022-09-09T18:18:35;2.47;;;1.50;;
295;SDS011;132;48.770;9.200;2022-09-09T18:21:22;2.30;;;1.40;;
295;SDS011;132;48.770;9.200;2022-09-09T18:24:11;5.00;;;1.70;;
295;SDS011;132;48.770;9.200;2022-09-09T18:26:58;1.70;;;1.30;;
295;SDS011;132;48.770;9.200;2022-09-09T18:29:46;2.10;;;1.50;;
295;SDS011;132;48.770;9.200;2022-09-09T18:32:33;1.50;;;1.40;;
295;SDS011;132;48.770;9.200;2022-09-09T18:35:19;3.70;;;1.57;;
295;SDS011;132;48.770;9.200;2022-09-09T18:38:06;2.73;;;1.63;;
295;SDS011;132;48.770;9.200;2022-09-09T18:40:53;2.40;;;1.43;;
295;SDS011;132;48.770;9.200;2022-09-09T18:43:40;1.63;;;1.43;;
295;SDS011;132;48.770;9.200;2022-09-09T18:46:28;2.97;;;1.80;;
295;SDS011;132;48.770;9.200;2022-09-09T18:49:16;2.80;;;1.60;;
295;SDS011;132;48.770;9.200;2022-09-09T18:52:03;1.90;;;1.80;;
295;SDS011;132;48.770;9.200;2022-09-09T18:54:50;3.80;;;1.73;;
295;SDS011;132;48.770;9.200;2022-09-09T18:57:37;3.10;;;1.73;;
295;SDS011;132;48.770;9.200;2022-09-09T19:00:24;3.90;;;2.10;;
295;SDS011;132;48.770;9.200;2022-09-09T19:03:11;4.07;;;1.90;;
295;SDS011;132;48.770;9.200;2022-09-09T19:06:11;2.60;;;1.67;;
295;SDS011;132;48.770;9.200;2022-09-09T19:09:00;2.70;;;1.60;;
295;SDS011;132;48.770;9.200;2022-09-09T19:11:47;3.30;;;1.80;;
295;SDS011;132;48.770;9.200;2022-09-09T19:14:33;6.10;;;1.90;;
295;SDS011;132;48.770;9.200;2022-09-09T19:17:20;2.90;;;1.60;;
295;SDS011;132;48.770;9.200;2022-09-09T19:20:07;3.03;;;1.70;;
295;SDS011;132;48.770;9.200;2022-09-09T19:22:54;4.30;;;1.60;;
295;SDS011;132;48.770;9.200;2022-09-09T19:25:41;3.83;;;1.70;;
295;SDS011;132;48.770;9.200;2022-09-09T19:28:28;3.07;;;1.50;;
295;SDS011;132;48.770;9.200;2022-09-09T19:31:16;3.30;;;1.60;;
295;SDS011;132;48.770;9.200;2022-09-09T19:34:04;3.50;;;1.80;;
295;SDS011;132;48.770;9.200;2022-09-09T19:36:51;2.93;;;1.60;;
295;SDS011;132;48.770;9.200;2022-09-09T19:39:38;2.80;;;1.53;;
295;SDS011;132;48.770;9.200;2022-09-09T19:42:24;3.20;;;1.70;;
295;SDS011;132;48.770;9.200;2022-09-09T19:45:11;2.87;;;1.50;;
295;SDS011;132;48.770;9.200;2022-09-09T19:47:58;4.23;;;1.70;;